createdAt,value
2018-09-18T00:01:21.754Z,13.40
2018-09-18T00:03:50.427Z,14.23
2018-09-18T00:06:19.113Z,14.93
2018-09-18T00:08:47.694Z,15.20
2018-09-18T00:11:16.073Z,16.70
2018-09-18T00:13:44.759Z,15.60
2018-09-18T00:16:13.337Z,15.63
2018-09-18T00:18:42.031Z,14.63
2018-09-18T00:21:10.611Z,13.93
2018-09-18T00:23:38.984Z,15.37
2018-09-18T00:26:07.889Z,14.73
2018-09-18T00:28:36.361Z,14.90
2018-09-18T00:31:04.943Z,14.07
2018-09-18T00:33:33.569Z,13.97
2018-09-18T00:36:02.213Z,14.43
2018-09-18T00:38:30.692Z,14.73
2018-09-18T00:40:59.171Z,14.37
2018-09-18T00:43:27.757Z,14.30
2018-09-18T00:45:56.443Z,14.13
2018-09-18T00:48:25.129Z,13.90
2018-09-18T00:50:53.507Z,14.57
2018-09-18T00:53:22.093Z,14.13
2018-09-18T00:55:50.682Z,12.73
2018-09-18T00:58:19.049Z,12.77
2018-09-18T01:00:47.839Z,12.77
2018-09-18T01:03:16.322Z,13.10
2018-09-18T01:05:44.902Z,11.77
2018-09-18T01:08:13.691Z,12.43
2018-09-18T01:10:42.373Z,12.27
2018-09-18T01:13:11.160Z,13.03
2018-09-18T01:15:39.512Z,13.40
2018-09-18T01:18:08.429Z,15.13
2018-09-18T01:20:37.027Z,15.07
2018-09-18T01:23:05.697Z,16.17
2018-09-18T01:25:34.178Z,13.90
2018-09-18T01:28:02.653Z,15.63
2018-09-18T01:30:31.189Z,14.13
2018-09-18T01:32:59.929Z,15.10
2018-09-18T01:35:28.321Z,14.07
2018-09-18T01:37:57.092Z,13.27
2018-09-18T01:40:25.675Z,13.83
2018-09-18T01:42:54.362Z,15.63
2018-09-18T01:45:23.049Z,15.03
2018-09-18T01:47:51.733Z,14.53
2018-09-18T01:50:20.426Z,14.23
2018-09-18T01:52:48.900Z,13.03
2018-09-18T01:55:17.483Z,14.40
2018-09-18T01:57:46.167Z,13.53
2018-09-18T02:00:14.753Z,12.60
2018-09-18T02:02:43.434Z,13.07
2018-09-18T02:05:12.018Z,12.83
2018-09-18T02:07:40.498Z,13.03
2018-09-18T02:10:08.974Z,13.37
2018-09-18T02:12:37.463Z,12.43
2018-09-18T02:15:06.257Z,11.20
2018-09-18T02:17:34.528Z,11.93
2018-09-18T02:20:03.112Z,11.00
2018-09-18T02:22:31.687Z,11.07
2018-09-18T02:25:00.383Z,11.47
2018-09-18T02:27:28.846Z,10.17
2018-09-18T02:29:57.233Z,10.47
2018-09-18T02:32:25.918Z,10.00
2018-09-18T02:34:54.603Z,9.27
2018-09-18T02:37:23.056Z,10.30
2018-09-18T02:39:51.565Z,9.97
2018-09-18T02:42:20.852Z,10.30
2018-09-18T02:44:49.656Z,9.97
2018-09-18T02:47:18.648Z,9.40
2018-09-18T02:49:47.536Z,10.47
2018-09-18T02:52:15.916Z,10.47
2018-09-18T02:54:44.699Z,10.23
2018-09-18T02:57:13.284Z,10.03
2018-09-18T02:59:41.816Z,10.60
2018-09-18T03:02:10.346Z,9.80
2018-09-18T03:04:39.032Z,9.07
2018-09-18T03:07:07.719Z,9.77
2018-09-18T03:09:36.206Z,10.20
2018-09-18T03:12:04.782Z,10.47
2018-09-18T03:14:33.261Z,9.70
2018-09-18T03:17:01.798Z,9.97
2018-09-18T03:19:30.338Z,10.23
2018-09-18T03:21:59.011Z,10.37
2018-09-18T03:24:28.004Z,10.27
2018-09-18T03:26:56.483Z,10.20
2018-09-18T03:29:25.071Z,10.00
2018-09-18T03:31:53.649Z,9.90
2018-09-18T03:34:22.050Z,10.33
2018-09-18T03:36:50.817Z,9.60
2018-09-18T03:39:19.339Z,10.10
2018-09-18T03:41:47.699Z,10.20
2018-09-18T03:44:16.259Z,10.03
2018-09-18T03:46:44.663Z,9.63
2018-09-18T03:49:13.214Z,9.50
2018-09-18T03:51:41.698Z,9.83
2018-09-18T03:54:10.281Z,9.80
2018-09-18T03:56:38.767Z,9.00
2018-09-18T03:59:07.347Z,9.57
2018-09-18T04:01:35.928Z,9.30
2018-09-18T04:04:04.626Z,9.50
2018-09-18T04:06:33.197Z,8.97
2018-09-18T04:09:01.684Z,9.67
2018-09-18T04:11:30.158Z,10.20
2018-09-18T04:13:58.740Z,8.97
2018-09-18T04:16:27.223Z,9.00
2018-09-18T04:18:56.113Z,9.10
2018-09-18T04:21:29.894Z,10.03
2018-09-18T04:23:58.705Z,9.17
2018-09-18T04:26:27.196Z,9.63
2018-09-18T04:28:55.666Z,9.17
2018-09-18T04:31:24.265Z,10.13
2018-09-18T04:33:52.832Z,9.40
2018-09-18T04:36:21.315Z,10.13
2018-09-18T04:38:50.121Z,10.88
2018-09-18T04:41:18.685Z,10.17
2018-09-18T04:43:47.169Z,10.63
2018-09-18T04:46:15.747Z,11.23
2018-09-18T04:49:20.540Z,11.03
2018-09-18T04:52:23.955Z,11.90
2018-09-18T04:54:52.490Z,11.07
2018-09-18T04:57:21.145Z,11.43
2018-09-18T04:59:49.943Z,12.07
2018-09-18T05:02:18.520Z,10.63
2018-09-18T05:04:47.099Z,10.83
2018-09-18T05:07:15.684Z,12.10
2018-09-18T05:09:44.265Z,11.20
2018-09-18T05:12:12.749Z,10.70
2018-09-18T05:14:41.532Z,11.90
2018-09-18T05:17:10.013Z,10.77
2018-09-18T05:19:39.220Z,10.93
2018-09-18T05:22:07.875Z,11.30
2018-09-18T05:24:36.823Z,10.03
2018-09-18T05:27:05.676Z,11.67
2018-09-18T05:29:34.241Z,11.37
2018-09-18T05:32:02.944Z,11.37
2018-09-18T05:34:31.638Z,11.90
2018-09-18T05:36:59.965Z,11.37
2018-09-18T05:39:28.898Z,11.60
2018-09-18T05:41:57.628Z,11.83
2018-09-18T05:44:26.374Z,12.87
2018-09-18T05:46:55.163Z,11.97
2018-09-18T05:49:25.191Z,11.30
2018-09-18T05:51:53.865Z,11.73
2018-09-18T05:54:22.445Z,11.27
2018-09-18T05:56:50.924Z,11.13
2018-09-18T05:59:19.565Z,11.80
2018-09-18T06:01:48.295Z,11.23
2018-09-18T06:04:16.770Z,12.33
2018-09-18T06:06:45.258Z,12.30
2018-09-18T06:09:13.990Z,12.70
2018-09-18T06:11:42.627Z,12.80
2018-09-18T06:14:11.344Z,13.93
2018-09-18T06:16:39.812Z,13.03
2018-09-18T06:19:08.426Z,14.37
2018-09-18T06:21:37.062Z,13.97
2018-09-18T06:24:05.747Z,14.43
2018-09-18T06:26:34.274Z,16.03
2018-09-18T06:29:02.670Z,17.57
2018-09-18T06:31:31.209Z,18.37
2018-09-18T06:33:59.669Z,19.80
2018-09-18T06:36:28.251Z,18.90
2018-09-18T06:38:56.733Z,19.43
2018-09-18T06:41:25.268Z,19.10
2018-09-18T06:43:53.799Z,18.67
2018-09-18T06:46:22.379Z,20.30
2018-09-18T06:48:50.961Z,19.30
2018-09-18T06:51:19.604Z,19.30
2018-09-18T06:53:59.450Z,19.80
2018-09-18T06:56:55.933Z,19.37
2018-09-18T07:02:35.360Z,18.50
2018-09-18T07:05:28.210Z,18.47
2018-09-18T07:08:08.311Z,19.77
2018-09-18T07:10:59.418Z,17.67
2018-09-18T07:13:35.728Z,15.73
2018-09-18T07:16:19.143Z,16.40
2018-09-18T07:18:47.734Z,15.93
2018-09-18T07:21:16.420Z,14.73
2018-09-18T07:23:44.591Z,15.47
2018-09-18T07:26:12.801Z,14.30
2018-09-18T07:28:41.265Z,16.13
2018-09-18T07:31:09.597Z,14.87
2018-09-18T07:33:38.048Z,14.43
2018-09-18T07:36:06.823Z,13.10
2018-09-18T07:38:35.371Z,11.97
2018-09-18T07:41:03.987Z,11.47
2018-09-18T07:43:32.740Z,11.27
2018-09-18T07:46:01.113Z,11.03
2018-09-18T07:48:38.109Z,11.53
2018-09-18T07:51:08.136Z,11.77
2018-09-18T07:53:36.598Z,10.73
2018-09-18T07:56:04.824Z,10.70
2018-09-18T07:58:33.014Z,10.73
2018-09-18T08:01:01.454Z,10.23
2018-09-18T08:03:30.001Z,10.97
2018-09-18T08:05:58.691Z,10.47
2018-09-18T08:08:27.182Z,10.83
2018-09-18T08:10:55.815Z,10.37
2018-09-18T08:13:24.653Z,10.33
2018-09-18T08:15:53.087Z,9.70
2018-09-18T08:18:21.564Z,10.80
2018-09-18T08:20:50.201Z,10.43
2018-09-18T08:23:18.686Z,11.50
2018-09-18T08:25:47.269Z,10.57
2018-09-18T08:28:15.867Z,13.30
2018-09-18T08:30:44.075Z,14.63
2018-09-18T08:33:12.694Z,13.13
2018-09-18T08:35:41.482Z,13.13
2018-09-18T08:38:09.675Z,13.77
2018-09-18T08:40:38.359Z,14.70
2018-09-18T08:43:06.731Z,14.97
2018-09-18T08:45:35.510Z,15.57
2018-09-18T08:48:03.897Z,15.67
2018-09-18T08:50:32.170Z,15.67
2018-09-18T08:53:00.389Z,18.10
2018-09-18T08:55:28.871Z,18.70
2018-09-18T08:57:57.237Z,19.30
2018-09-18T09:00:26.159Z,19.80
2018-09-18T09:02:54.628Z,21.47
2018-09-18T09:05:22.997Z,21.47
2018-09-18T09:07:51.820Z,21.23
2018-09-18T09:10:20.874Z,15.43
2018-09-18T09:12:49.406Z,14.03
2018-09-18T09:15:17.861Z,12.93
2018-09-18T09:17:46.391Z,12.90
2018-09-18T09:20:14.520Z,15.03
2018-09-18T09:22:43.030Z,10.83
2018-09-18T09:25:11.266Z,11.23
2018-09-18T09:27:40.114Z,11.80
2018-09-18T09:30:08.379Z,12.37
2018-09-18T09:32:37.113Z,12.20
2018-09-18T09:35:06.822Z,12.10
2018-09-18T09:37:35.471Z,10.60
2018-09-18T09:40:03.870Z,11.40
2018-09-18T09:42:32.063Z,11.33
2018-09-18T09:45:00.736Z,11.60
2018-09-18T09:47:29.371Z,11.40
2018-09-18T09:49:58.051Z,11.93
2018-09-18T09:52:26.533Z,11.73
2018-09-18T09:54:55.014Z,11.37
2018-09-18T09:57:23.701Z,12.70
2018-09-18T09:59:52.281Z,12.80
2018-09-18T10:02:25.893Z,13.20
2018-09-18T10:04:54.285Z,12.07
2018-09-18T10:07:22.841Z,12.47
2018-09-18T10:09:51.222Z,12.37
2018-09-18T10:12:19.599Z,12.80
2018-09-18T10:14:48.158Z,12.10
2018-09-18T10:17:16.767Z,11.87
2018-09-18T10:19:45.353Z,11.10
2018-09-18T10:22:13.934Z,11.70
2018-09-18T10:24:42.428Z,11.53
2018-09-18T10:27:10.897Z,11.57
2018-09-18T10:29:39.392Z,11.13
2018-09-18T10:32:08.063Z,11.00
2018-09-18T10:34:36.642Z,10.33
2018-09-18T10:37:05.337Z,9.63
2018-09-18T10:39:33.908Z,9.47
2018-09-18T10:42:02.570Z,9.07
2018-09-18T10:44:31.001Z,8.63
2018-09-18T10:46:59.332Z,9.13
2018-09-18T10:49:28.124Z,9.08
2018-09-18T10:51:57.372Z,8.83
2018-09-18T10:54:26.226Z,10.98
2018-09-18T10:56:54.812Z,9.45
2018-09-18T10:59:23.704Z,9.23
2018-09-18T11:01:53.067Z,8.65
2018-09-18T11:04:21.296Z,9.43
2018-09-18T11:06:50.274Z,8.28
2018-09-18T11:09:18.786Z,8.18
2018-09-18T11:11:47.285Z,7.92
2018-09-18T11:14:16.501Z,7.37
2018-09-18T11:16:45.212Z,7.58
2018-09-18T11:19:13.639Z,8.05
2018-09-18T11:21:41.987Z,7.58
2018-09-18T11:24:10.728Z,7.50
2018-09-18T11:26:39.203Z,8.08
2018-09-18T11:29:08.110Z,8.03
2018-09-18T11:31:37.021Z,8.03
2018-09-18T11:34:11.083Z,7.00
2018-09-18T11:36:39.735Z,7.30
2018-09-18T11:39:08.299Z,7.92
2018-09-18T11:41:36.889Z,7.30
2018-09-18T11:44:05.367Z,8.08
2018-09-18T11:46:34.201Z,7.62
2018-09-18T11:49:02.864Z,7.53
2018-09-18T11:51:31.521Z,8.00
2018-09-18T11:54:00.107Z,7.92
2018-09-18T11:56:28.628Z,7.40
2018-09-18T11:58:57.278Z,7.72
2018-09-18T12:01:25.854Z,7.33
2018-09-18T12:03:54.359Z,8.45
2018-09-18T12:06:22.814Z,8.33
2018-09-18T12:08:51.801Z,7.50
2018-09-18T12:11:20.333Z,8.50
2018-09-18T12:13:48.975Z,8.97
2018-09-18T12:16:17.660Z,8.83
2018-09-18T12:18:46.219Z,8.70
2018-09-18T12:21:15.236Z,8.90
2018-09-18T12:23:43.920Z,8.37
2018-09-18T12:26:12.605Z,8.05
2018-09-18T12:28:41.315Z,9.40
2018-09-18T12:31:09.975Z,8.38
2018-09-18T12:33:38.566Z,7.55
2018-09-18T12:36:07.467Z,8.50
2018-09-18T12:38:36.107Z,8.75
2018-09-18T12:41:04.719Z,9.33
2018-09-18T12:43:33.395Z,8.93
2018-09-18T12:46:02.194Z,9.40
2018-09-18T12:48:30.342Z,9.27
2018-09-18T12:50:58.680Z,9.60
2018-09-18T12:53:27.285Z,9.93
2018-09-18T12:55:55.509Z,10.37
2018-09-18T12:58:24.156Z,10.00
2018-09-18T13:00:52.669Z,10.57
2018-09-18T13:03:21.885Z,9.70
2018-09-18T13:05:50.180Z,10.07
2018-09-18T13:08:18.500Z,10.50
2018-09-18T13:10:46.607Z,10.10
2018-09-18T13:13:14.760Z,10.17
2018-09-18T13:15:43.246Z,10.50
2018-09-18T13:18:11.845Z,9.87
2018-09-18T13:20:40.303Z,10.43
2018-09-18T13:23:08.508Z,10.63
2018-09-18T13:25:36.636Z,10.07
2018-09-18T13:28:05.189Z,10.53
2018-09-18T13:30:33.899Z,10.57
2018-09-18T13:33:02.561Z,9.57
2018-09-18T13:35:30.886Z,10.33
2018-09-18T13:37:59.363Z,9.37
2018-09-18T13:40:28.048Z,10.27
2018-09-18T13:42:56.752Z,10.40
2018-09-18T13:45:25.521Z,10.17
2018-09-18T13:47:54.004Z,10.33
2018-09-18T13:50:22.655Z,10.80
2018-09-18T13:52:51.371Z,11.33
2018-09-18T13:55:19.985Z,10.73
2018-09-18T13:57:48.449Z,10.97
2018-09-18T14:00:17.223Z,10.53
2018-09-18T14:02:45.934Z,11.70
2018-09-18T14:05:14.496Z,10.83
2018-09-18T14:07:43.075Z,11.10
2018-09-18T14:10:13.604Z,11.40
2018-09-18T14:12:42.170Z,11.23
2018-09-18T14:15:10.894Z,10.63
2018-09-18T14:17:39.356Z,10.40
2018-09-18T14:20:07.763Z,9.67
2018-09-18T14:22:36.724Z,10.20
2018-09-18T14:25:05.182Z,9.83
2018-09-18T14:27:33.686Z,10.33
2018-09-18T14:30:02.473Z,10.53
2018-09-18T14:32:30.972Z,10.13
2018-09-18T14:34:59.641Z,8.70
2018-09-18T14:37:28.222Z,10.33
2018-09-18T14:39:56.745Z,10.30
2018-09-18T14:42:25.130Z,9.30
2018-09-18T14:44:53.664Z,9.53
2018-09-18T14:47:22.350Z,9.30
2018-09-18T14:49:50.852Z,9.83
2018-09-18T14:52:19.516Z,10.30
2018-09-18T14:54:47.997Z,9.57
2018-09-18T14:57:16.483Z,9.63
2018-09-18T14:59:44.651Z,8.70
2018-09-18T15:02:13.341Z,8.77
2018-09-18T15:04:41.968Z,8.77
2018-09-18T15:07:10.198Z,10.28
2018-09-18T15:09:38.881Z,8.97
2018-09-18T15:12:07.022Z,8.63
2018-09-18T15:14:35.195Z,9.33
2018-09-18T15:17:03.430Z,9.80
2018-09-18T15:19:31.651Z,9.25
2018-09-18T15:22:00.285Z,9.40
2018-09-18T15:24:29.045Z,9.78
2018-09-18T15:26:57.735Z,9.63
2018-09-18T15:29:26.424Z,9.65
2018-09-18T15:31:55.003Z,9.00
2018-09-18T15:34:23.386Z,9.13
2018-09-18T15:36:51.962Z,9.80
2018-09-18T15:39:20.446Z,9.65
2018-09-18T15:41:49.030Z,10.30
2018-09-18T15:44:17.721Z,10.05
2018-09-18T15:46:46.201Z,10.55
2018-09-18T15:49:14.883Z,10.63
2018-09-18T15:51:43.714Z,11.70
2018-09-18T15:54:12.265Z,11.13
2018-09-18T15:56:41.039Z,11.27
2018-09-18T15:59:09.623Z,10.80
2018-09-18T16:01:38.008Z,10.75
2018-09-18T16:04:06.482Z,10.87
2018-09-18T16:06:35.162Z,10.93
2018-09-18T16:09:04.881Z,10.80
2018-09-18T16:11:33.873Z,10.93
2018-09-18T16:14:02.286Z,11.20
2018-09-18T16:16:30.776Z,11.30
2018-09-18T16:18:59.408Z,12.50
2018-09-18T16:21:27.990Z,15.53
2018-09-18T16:23:56.574Z,13.93
2018-09-18T16:26:25.288Z,11.53
2018-09-18T16:28:54.056Z,11.75
2018-09-18T16:31:22.839Z,11.30
2018-09-18T16:33:51.255Z,11.15
2018-09-18T16:36:19.805Z,10.33
2018-09-18T16:38:48.383Z,10.73
2018-09-18T16:41:16.964Z,10.67
2018-09-18T16:43:45.452Z,10.77
2018-09-18T16:46:14.030Z,11.20
2018-09-18T16:48:42.714Z,11.47
2018-09-18T16:51:12.121Z,10.83
2018-09-18T16:53:40.699Z,11.37
2018-09-18T16:56:09.493Z,10.90
2018-09-18T16:58:38.020Z,12.20
2018-09-18T17:01:06.754Z,13.13
2018-09-18T17:03:35.236Z,12.23
2018-09-18T17:06:03.819Z,13.43
2018-09-18T17:08:32.409Z,12.67
2018-09-18T17:11:01.090Z,12.80
2018-09-18T17:13:29.790Z,11.87
2018-09-18T17:15:58.662Z,11.57
2018-09-18T17:18:27.495Z,11.20
2018-09-18T17:20:56.067Z,10.33
2018-09-18T17:23:24.420Z,10.70
2018-09-18T17:25:52.914Z,11.90
2018-09-18T17:28:21.669Z,10.83
2018-09-18T17:30:50.265Z,11.20
2018-09-18T17:33:18.854Z,11.30
2018-09-18T17:35:47.532Z,11.23
2018-09-18T17:38:16.218Z,11.60
2018-09-18T17:40:44.801Z,11.33
2018-09-18T17:43:13.490Z,10.73
2018-09-18T17:45:42.113Z,12.43
2018-09-18T17:48:10.656Z,11.50
2018-09-18T17:50:39.242Z,11.67
2018-09-18T17:53:07.838Z,11.70
2018-09-18T17:55:36.361Z,12.40
2018-09-18T17:58:05.292Z,11.57
2018-09-18T18:00:33.872Z,11.77
2018-09-18T18:03:02.453Z,12.53
2018-09-18T18:05:31.198Z,12.20
2018-09-18T18:07:59.733Z,12.10
2018-09-18T18:10:28.616Z,11.23
2018-09-18T18:12:57.467Z,11.50
2018-09-18T18:15:26.193Z,11.63
2018-09-18T18:17:54.675Z,11.97
2018-09-18T18:20:23.557Z,11.67
2018-09-18T18:22:52.154Z,12.98
2018-09-18T18:25:21.136Z,12.60
2018-09-18T18:27:49.732Z,11.97
2018-09-18T18:30:18.508Z,11.93
2018-09-18T18:32:48.789Z,12.47
2018-09-18T18:35:17.021Z,11.17
2018-09-18T18:37:45.264Z,11.50
2018-09-18T18:40:13.469Z,12.70
2018-09-18T18:42:42.033Z,11.70
2018-09-18T18:45:11.373Z,13.07
2018-09-18T18:47:39.704Z,11.87
2018-09-18T18:50:08.407Z,12.80
2018-09-18T18:52:37.048Z,12.27
2018-09-18T18:55:05.562Z,12.57
2018-09-18T18:57:34.453Z,12.53
2018-09-18T19:00:02.943Z,12.03
2018-09-18T19:02:31.117Z,11.63
2018-09-18T19:04:59.790Z,12.20
2018-09-18T19:07:28.591Z,13.20
2018-09-18T19:09:57.191Z,13.20
2018-09-18T19:12:25.710Z,12.47
2018-09-18T19:14:53.853Z,12.23
2018-09-18T19:17:22.065Z,11.80
2018-09-18T19:19:50.776Z,12.30
2018-09-18T19:22:19.372Z,14.00
2018-09-18T19:24:47.836Z,13.33
2018-09-18T19:27:16.650Z,14.27
2018-09-18T19:29:45.214Z,15.03
2018-09-18T19:32:13.798Z,15.20
2018-09-18T19:34:42.300Z,13.60
2018-09-18T19:37:10.963Z,15.97
2018-09-18T19:39:39.861Z,20.07
2018-09-18T19:42:08.106Z,20.73
2018-09-18T19:44:36.922Z,18.93
2018-09-18T19:47:05.139Z,17.20
2018-09-18T19:49:38.028Z,16.63
2018-09-18T19:52:06.490Z,16.20
2018-09-18T19:54:34.697Z,16.70
2018-09-18T19:57:03.136Z,16.03
2018-09-18T19:59:31.726Z,15.70
2018-09-18T20:02:00.049Z,19.03
2018-09-18T20:04:28.395Z,45.97
2018-09-18T20:06:56.554Z,52.17
2018-09-18T20:09:24.854Z,55.53
2018-09-18T20:11:53.375Z,46.23
2018-09-18T20:14:22.078Z,48.30
2018-09-18T20:16:50.644Z,31.03
2018-09-18T20:19:19.714Z,25.40
2018-09-18T20:21:48.244Z,22.27
2018-09-18T20:24:16.612Z,22.23
2018-09-18T20:26:45.282Z,27.93
2018-09-18T20:29:13.968Z,45.17
2018-09-18T20:31:42.465Z,46.77
2018-09-18T20:34:11.138Z,47.30
2018-09-18T20:36:39.614Z,36.40
2018-09-18T20:39:09.209Z,31.53
2018-09-18T20:41:37.592Z,23.27
2018-09-18T20:44:06.006Z,28.23
2018-09-18T20:46:34.178Z,20.60
2018-09-18T20:49:02.363Z,19.83
2018-09-18T20:51:30.547Z,26.87
2018-09-18T20:53:59.244Z,20.17
2018-09-18T20:56:27.511Z,20.20
2018-09-18T20:58:56.248Z,19.20
2018-09-18T21:01:24.478Z,18.00
2018-09-18T21:03:52.725Z,18.30
2018-09-18T21:06:20.967Z,17.90
2018-09-18T21:08:49.177Z,19.10
2018-09-18T21:11:17.821Z,19.70
2018-09-18T21:13:46.143Z,20.40
2018-09-18T21:16:14.436Z,18.70
2018-09-18T21:18:42.979Z,18.63
2018-09-18T21:21:11.217Z,18.40
2018-09-18T21:23:39.382Z,18.17
2018-09-18T21:26:10.871Z,18.03
2018-09-18T21:28:39.097Z,17.43
2018-09-18T21:31:07.609Z,16.40
2018-09-18T21:33:35.899Z,18.07
2018-09-18T21:36:04.216Z,19.37
2018-09-18T21:38:32.549Z,18.17
2018-09-18T21:41:00.748Z,17.57
2018-09-18T21:43:29.540Z,17.80
2018-09-18T21:45:57.842Z,18.50
2018-09-18T21:48:26.275Z,18.23
2018-09-18T21:50:54.853Z,18.77
2018-09-18T21:53:23.437Z,17.73
2018-09-18T21:55:51.692Z,17.90
2018-09-18T21:58:19.838Z,18.60
2018-09-18T22:00:48.331Z,18.10
2018-09-18T22:03:16.585Z,19.20
2018-09-18T22:05:45.079Z,18.33
2018-09-18T22:08:13.406Z,18.10
2018-09-18T22:10:41.667Z,17.87
2018-09-18T22:13:10.461Z,19.17
2018-09-18T22:15:39.121Z,18.03
2018-09-18T22:18:07.332Z,17.77
2018-09-18T22:20:36.011Z,17.60
2018-09-18T22:23:04.697Z,17.77
2018-09-18T22:25:33.214Z,17.87
2018-09-18T22:28:01.715Z,17.97
2018-09-18T22:30:30.240Z,18.73
2018-09-18T22:32:58.928Z,18.17
2018-09-18T22:35:27.502Z,17.80
2018-09-18T22:37:55.609Z,17.77
2018-09-18T22:40:24.053Z,18.63
2018-09-18T22:42:52.590Z,17.20
2018-09-18T22:45:20.859Z,17.33
2018-09-18T22:47:49.398Z,17.57
2018-09-18T22:50:17.782Z,16.17
2018-09-18T22:52:46.747Z,15.70
2018-09-18T22:55:14.939Z,16.47
2018-09-18T22:57:43.144Z,16.60
2018-09-18T23:00:11.374Z,15.90
2018-09-18T23:02:39.597Z,16.47
2018-09-18T23:05:08.192Z,15.53
2018-09-18T23:07:36.470Z,14.33
2018-09-18T23:10:04.841Z,14.20
2018-09-18T23:12:33.097Z,13.50
2018-09-18T23:15:01.349Z,13.37
2018-09-18T23:17:29.578Z,13.47
2018-09-18T23:19:57.753Z,13.07
2018-09-18T23:22:26.086Z,13.10
2018-09-18T23:24:54.435Z,12.13
2018-09-18T23:27:23.136Z,11.93
2018-09-18T23:29:51.930Z,11.70
2018-09-18T23:32:20.516Z,12.80
2018-09-18T23:34:48.981Z,12.27
2018-09-18T23:37:17.136Z,12.57
2018-09-18T23:39:45.379Z,12.60
2018-09-18T23:42:14.185Z,11.97
2018-09-18T23:44:42.858Z,12.33
2018-09-18T23:47:11.100Z,11.60
2018-09-18T23:49:39.668Z,11.77
2018-09-18T23:52:07.843Z,11.80
2018-09-18T23:54:36.628Z,12.53
2018-09-18T23:57:04.965Z,13.17
2018-09-18T23:59:33.180Z,13.03
